createdAt,value
2019-06-15T00:00:51.094Z,15.10
2019-06-15T00:03:20.879Z,15.10
2019-06-15T00:05:50.648Z,15.20
2019-06-15T00:08:20.471Z,15.30
2019-06-15T00:10:50.200Z,15.20
2019-06-15T00:13:22.857Z,15.20
2019-06-15T00:15:53.209Z,15.10
2019-06-15T00:18:24.622Z,15.20
2019-06-15T00:20:54.328Z,15.30
2019-06-15T00:23:24.028Z,15.30
2019-06-15T00:25:54.833Z,15.40
2019-06-15T00:28:24.598Z,15.50
2019-06-15T00:30:54.324Z,15.50
2019-06-15T00:33:24.037Z,15.60
2019-06-15T00:35:54.820Z,15.60
2019-06-15T00:38:24.594Z,15.60
2019-06-15T00:40:54.308Z,15.60
2019-06-15T00:43:24.067Z,15.60
2019-06-15T00:45:53.775Z,15.60
2019-06-15T00:48:23.467Z,15.60
2019-06-15T00:50:53.188Z,15.70
2019-06-15T00:53:22.868Z,15.70
2019-06-15T00:55:52.711Z,15.60
2019-06-15T00:58:22.514Z,15.50
2019-06-15T01:00:52.201Z,15.50
2019-06-15T01:03:21.997Z,15.40
2019-06-15T01:05:51.807Z,15.50
2019-06-15T01:08:40.723Z,15.40
2019-06-15T01:11:10.435Z,15.40
2019-06-15T01:13:40.518Z,15.40
2019-06-15T01:16:10.316Z,15.40
2019-06-15T01:18:40.043Z,15.40
2019-06-15T01:21:09.895Z,15.40
2019-06-15T01:23:39.644Z,15.40
2019-06-15T01:26:09.670Z,15.40
2019-06-15T01:28:39.410Z,15.40
2019-06-15T01:31:09.139Z,15.50
2019-06-15T01:33:38.866Z,15.50
2019-06-15T01:36:08.742Z,15.50
2019-06-15T01:38:38.466Z,15.40
2019-06-15T01:41:08.211Z,15.40
2019-06-15T01:43:37.903Z,15.40
2019-06-15T01:46:07.664Z,15.40
2019-06-15T01:48:37.424Z,15.50
2019-06-15T01:51:07.251Z,15.60
2019-06-15T01:53:36.950Z,15.60
2019-06-15T01:56:06.661Z,15.60
2019-06-15T01:58:36.447Z,15.50
2019-06-15T02:01:06.319Z,15.40
2019-06-15T02:03:36.104Z,15.30
2019-06-15T02:06:05.991Z,15.30
2019-06-15T02:08:35.731Z,15.30
2019-06-15T02:11:05.561Z,15.20
2019-06-15T02:13:35.255Z,15.10
2019-06-15T02:16:05.288Z,15.10
2019-06-15T02:18:35.006Z,15.10
2019-06-15T02:21:04.832Z,15.00
2019-06-15T02:23:34.558Z,14.90
2019-06-15T02:26:04.477Z,15.00
2019-06-15T02:28:34.183Z,15.00
2019-06-15T02:31:04.310Z,15.00
2019-06-15T02:33:34.007Z,14.90
2019-06-15T02:36:03.839Z,15.00
2019-06-15T02:38:33.540Z,15.00
2019-06-15T02:41:03.303Z,15.00
2019-06-15T02:43:33.017Z,15.10
2019-06-15T02:46:02.964Z,15.10
2019-06-15T02:48:32.760Z,15.10
2019-06-15T02:51:02.717Z,15.10
2019-06-15T02:53:32.479Z,15.00
2019-06-15T02:56:02.265Z,15.00
2019-06-15T02:58:31.982Z,15.00
2019-06-15T03:01:06.155Z,15.10
2019-06-15T03:03:36.270Z,15.10
2019-06-15T03:06:06.555Z,15.20
2019-06-15T03:08:37.907Z,15.20
2019-06-15T03:11:07.670Z,15.10
2019-06-15T03:13:37.576Z,15.20
2019-06-15T03:16:07.334Z,15.20
2019-06-15T03:18:37.134Z,15.20
2019-06-15T03:21:06.813Z,15.10
2019-06-15T03:23:36.608Z,15.00
2019-06-15T03:26:06.515Z,14.90
2019-06-15T03:28:36.217Z,14.90
2019-06-15T03:31:05.927Z,14.90
2019-06-15T03:33:35.629Z,14.80
2019-06-15T03:36:05.516Z,14.90
2019-06-15T03:38:35.218Z,14.80
2019-06-15T03:41:05.004Z,14.90
2019-06-15T03:43:34.847Z,14.90
2019-06-15T03:46:04.714Z,14.90
2019-06-15T03:48:47.522Z,14.80
2019-06-15T03:51:17.248Z,14.70
2019-06-15T03:53:46.942Z,14.70
2019-06-15T03:56:21.516Z,14.70
2019-06-15T03:58:48.136Z,14.70
2019-06-15T04:01:27.103Z,14.60
2019-06-15T04:03:58.190Z,14.50
2019-06-15T04:06:27.886Z,14.50
2019-06-15T04:08:57.811Z,14.40
2019-06-15T04:11:27.583Z,14.50
2019-06-15T04:13:57.479Z,14.50
2019-06-15T04:16:27.255Z,14.60
2019-06-15T04:18:57.052Z,14.60
2019-06-15T04:21:33.027Z,14.60
2019-06-15T04:24:02.733Z,14.60
2019-06-15T04:26:36.319Z,14.60
2019-06-15T04:29:05.311Z,14.60
2019-06-15T04:31:35.301Z,14.70
2019-06-15T04:34:05.994Z,14.70
2019-06-15T04:36:41.016Z,14.60
2019-06-15T04:39:09.795Z,14.60
2019-06-15T04:41:39.574Z,14.50
2019-06-15T04:44:09.291Z,14.50
2019-06-15T04:46:38.996Z,14.50
2019-06-15T04:49:08.682Z,14.50
2019-06-15T04:51:40.165Z,14.60
2019-06-15T04:54:09.926Z,14.60
2019-06-15T04:56:50.503Z,14.60
2019-06-15T04:59:11.023Z,14.70
2019-06-15T05:01:40.727Z,14.70
2019-06-15T05:04:10.517Z,14.70
2019-06-15T05:06:40.279Z,14.70
2019-06-15T05:09:09.996Z,14.70
2019-06-15T05:11:39.704Z,14.70
2019-06-15T05:14:11.718Z,14.70
2019-06-15T05:16:41.408Z,14.70
2019-06-15T05:19:12.023Z,14.70
2019-06-15T05:21:41.805Z,14.70
2019-06-15T05:24:11.531Z,14.70
2019-06-15T05:26:41.250Z,14.70
2019-06-15T05:29:11.342Z,14.70
2019-06-15T05:31:41.145Z,14.80
2019-06-15T05:34:11.297Z,14.70
2019-06-15T05:36:41.008Z,14.70
2019-06-15T05:39:11.870Z,14.60
2019-06-15T05:41:41.588Z,14.70
2019-06-15T05:44:11.311Z,14.70
2019-06-15T05:46:41.111Z,14.70
2019-06-15T05:49:10.807Z,14.70
2019-06-15T05:51:42.263Z,14.60
2019-06-15T05:54:12.933Z,14.60
2019-06-15T05:56:42.728Z,14.60
2019-06-15T05:59:13.440Z,14.70
2019-06-15T06:01:43.483Z,14.70
2019-06-15T06:04:13.233Z,14.80
2019-06-15T06:06:42.927Z,14.80
2019-06-15T06:09:12.650Z,14.90
2019-06-15T06:11:42.370Z,14.90
2019-06-15T06:14:12.164Z,14.90
2019-06-15T06:16:41.881Z,15.00
2019-06-15T06:19:11.595Z,14.90
2019-06-15T06:21:41.511Z,14.80
2019-06-15T06:24:11.297Z,14.70
2019-06-15T06:26:40.984Z,14.70
2019-06-15T06:29:11.010Z,14.70
2019-06-15T06:31:40.812Z,14.60
2019-06-15T06:34:10.495Z,14.50
2019-06-15T06:36:40.523Z,14.40
2019-06-15T06:39:10.399Z,14.40
2019-06-15T06:41:41.719Z,14.50
2019-06-15T06:44:11.559Z,14.50
2019-06-15T06:46:41.318Z,14.50
2019-06-15T06:49:11.038Z,14.50
2019-06-15T06:51:41.958Z,14.50
2019-06-15T06:54:11.654Z,14.50
2019-06-15T06:56:42.287Z,14.50
2019-06-15T06:59:13.434Z,14.50
2019-06-15T07:01:43.180Z,14.50
2019-06-15T07:04:12.900Z,14.40
2019-06-15T07:06:42.592Z,14.40
2019-06-15T07:09:12.783Z,14.30
2019-06-15T07:11:43.379Z,14.20
2019-06-15T07:14:13.571Z,14.10
2019-06-15T07:16:44.442Z,14.10
2019-06-15T07:19:14.302Z,14.10
2019-06-15T07:21:44.070Z,14.10
2019-06-15T07:24:13.847Z,14.10
2019-06-15T07:26:43.547Z,14.10
2019-06-15T07:29:13.288Z,14.10
2019-06-15T07:31:43.043Z,14.10
2019-06-15T07:34:12.823Z,14.10
2019-06-15T07:36:42.540Z,14.10
2019-06-15T07:39:12.350Z,14.20
2019-06-15T07:41:43.259Z,14.20
2019-06-15T07:44:14.547Z,14.30
2019-06-15T07:46:45.411Z,14.40
2019-06-15T07:49:15.327Z,14.50
2019-06-15T07:51:45.075Z,14.50
2019-06-15T07:54:14.854Z,14.60
2019-06-15T07:56:44.656Z,14.60
2019-06-15T07:59:16.755Z,14.70
2019-06-15T08:01:46.464Z,14.80
2019-06-15T08:04:16.258Z,14.80
2019-06-15T08:06:46.020Z,14.90
2019-06-15T08:09:15.790Z,14.80
2019-06-15T08:11:45.971Z,14.90
2019-06-15T08:14:16.849Z,14.90
2019-06-15T08:16:47.719Z,15.00
2019-06-15T08:19:17.511Z,15.00
2019-06-15T08:21:48.236Z,15.10
2019-06-15T08:24:18.091Z,15.20
2019-06-15T08:26:47.966Z,15.30
2019-06-15T08:29:17.786Z,15.40
2019-06-15T08:31:48.471Z,15.50
2019-06-15T08:34:18.215Z,15.60
2019-06-15T08:36:48.432Z,15.70
2019-06-15T08:39:18.185Z,15.70
2019-06-15T08:41:48.207Z,15.60
2019-06-15T08:44:18.968Z,15.60
2019-06-15T08:46:48.694Z,15.50
2019-06-15T08:49:18.485Z,15.50
2019-06-15T08:51:48.472Z,15.50
2019-06-15T08:54:20.462Z,15.50
2019-06-15T08:56:50.314Z,15.50
2019-06-15T08:59:20.523Z,15.60
2019-06-15T09:01:50.344Z,15.60
2019-06-15T09:04:20.382Z,15.70
2019-06-15T09:06:50.363Z,15.70
2019-06-15T09:09:20.127Z,15.80
2019-06-15T09:11:49.840Z,15.90
2019-06-15T09:14:21.339Z,16.10
2019-06-15T09:16:51.165Z,16.30
2019-06-15T09:19:23.320Z,16.30
2019-06-15T09:21:53.111Z,16.30
2019-06-15T09:24:22.806Z,16.30
2019-06-15T09:26:52.519Z,16.30
2019-06-15T09:29:23.304Z,16.30
2019-06-15T09:31:57.332Z,16.20
2019-06-15T09:34:27.183Z,16.20
2019-06-15T09:36:56.876Z,16.30
2019-06-15T09:39:26.597Z,16.50
2019-06-15T09:41:56.366Z,16.60
2019-06-15T09:44:26.097Z,16.70
2019-06-15T09:46:55.796Z,16.80
2019-06-15T09:49:25.582Z,16.90
2019-06-15T09:51:56.212Z,17.00
2019-06-15T09:54:27.990Z,17.20
2019-06-15T09:56:57.827Z,17.40
2019-06-15T09:59:27.603Z,17.70
2019-06-15T10:01:57.420Z,17.80
2019-06-15T10:04:27.295Z,17.70
2019-06-15T10:06:57.338Z,17.90
2019-06-15T10:09:27.202Z,18.00
2019-06-15T10:11:57.030Z,18.20
2019-06-15T10:14:26.907Z,18.40
2019-06-15T10:16:56.675Z,18.60
2019-06-15T10:19:26.363Z,18.80
2019-06-15T10:21:58.442Z,18.90
2019-06-15T10:24:28.183Z,18.90
2019-06-15T10:26:57.997Z,19.10
2019-06-15T10:29:41.146Z,19.10
2019-06-15T10:31:59.321Z,19.10
2019-06-15T10:34:29.179Z,19.10
2019-06-15T10:36:59.044Z,19.00
2019-06-15T10:39:28.785Z,18.90
2019-06-15T10:41:58.592Z,18.90
2019-06-15T10:44:28.387Z,19.00
2019-06-15T10:46:58.114Z,19.10
2019-06-15T10:49:27.862Z,19.30
2019-06-15T10:51:57.597Z,19.50
2019-06-15T10:54:27.403Z,19.60
2019-06-15T10:56:57.286Z,19.50
2019-06-15T10:59:30.247Z,19.40
2019-06-15T11:02:00.046Z,19.40
2019-06-15T11:04:29.756Z,19.40
2019-06-15T11:06:59.758Z,19.60
2019-06-15T11:09:29.528Z,19.50
2019-06-15T11:11:59.441Z,19.40
2019-06-15T11:14:29.219Z,19.50
2019-06-15T11:17:00.610Z,19.40
2019-06-15T11:19:30.329Z,19.10
2019-06-15T11:22:00.195Z,19.20
2019-06-15T11:24:29.975Z,19.20
2019-06-15T11:26:59.823Z,19.40
2019-06-15T11:29:29.519Z,19.50
2019-06-15T11:31:59.259Z,19.40
2019-06-15T11:34:28.944Z,19.40
2019-06-15T11:36:58.718Z,19.50
2019-06-15T11:39:29.522Z,19.80
2019-06-15T11:41:59.313Z,20.00
2019-06-15T11:44:29.159Z,20.20
2019-06-15T11:46:58.879Z,20.10
2019-06-15T11:49:28.649Z,19.90
2019-06-15T11:51:58.548Z,20.20
2019-06-15T11:54:28.259Z,20.40
2019-06-15T11:56:57.959Z,20.40
2019-06-15T11:59:27.664Z,20.30
2019-06-15T12:01:57.587Z,20.10
2019-06-15T12:04:27.275Z,20.10
2019-06-15T12:06:56.964Z,20.10
2019-06-15T12:09:26.654Z,20.10
2019-06-15T12:11:56.357Z,20.20
2019-06-15T12:14:26.136Z,20.50
2019-06-15T12:16:55.895Z,20.60
2019-06-15T12:19:25.686Z,20.50
2019-06-15T12:21:55.679Z,20.20
2019-06-15T12:24:25.452Z,20.20
2019-06-15T12:26:57.384Z,20.20
2019-06-15T12:29:27.963Z,20.50
2019-06-15T12:31:57.865Z,20.70
2019-06-15T12:34:27.741Z,20.80
2019-06-15T12:36:57.499Z,20.70
2019-06-15T12:39:27.350Z,20.60
2019-06-15T12:41:57.079Z,20.40
2019-06-15T12:44:26.890Z,20.20
2019-06-15T12:46:56.679Z,20.10
2019-06-15T12:49:26.485Z,19.90
2019-06-15T12:51:56.324Z,19.60
2019-06-15T12:54:26.023Z,19.50
2019-06-15T12:56:55.787Z,19.40
2019-06-15T12:59:25.619Z,19.30
2019-06-15T13:01:55.433Z,19.40
2019-06-15T13:04:26.236Z,19.50
2019-06-15T13:06:55.951Z,19.60
2019-06-15T13:09:25.643Z,19.60
2019-06-15T13:11:55.332Z,19.60
2019-06-15T13:14:25.076Z,19.60
2019-06-15T13:16:54.776Z,19.50
2019-06-15T13:19:24.483Z,19.40
2019-06-15T13:21:54.264Z,19.50
2019-06-15T13:24:23.994Z,19.40
2019-06-15T13:26:53.727Z,19.50
2019-06-15T13:29:23.476Z,19.70
2019-06-15T13:31:53.231Z,19.70
2019-06-15T13:34:22.940Z,19.60
2019-06-15T13:36:52.647Z,19.50
2019-06-15T13:39:22.373Z,19.40
2019-06-15T13:41:52.340Z,19.40
2019-06-15T13:44:25.283Z,19.40
2019-06-15T13:46:55.124Z,19.20
2019-06-15T13:49:24.819Z,19.10
2019-06-15T13:51:54.518Z,19.00
2019-06-15T13:54:24.192Z,18.80
2019-06-15T13:56:54.083Z,18.80
2019-06-15T13:59:23.820Z,18.80
2019-06-15T14:01:53.722Z,18.90
2019-06-15T14:04:23.438Z,19.20
2019-06-15T14:06:53.144Z,19.20
2019-06-15T14:09:22.858Z,19.10
2019-06-15T14:11:55.110Z,18.90
2019-06-15T14:14:25.593Z,18.80
2019-06-15T14:16:55.336Z,18.90
2019-06-15T14:19:26.723Z,18.90
2019-06-15T14:21:56.460Z,19.00
2019-06-15T14:24:26.279Z,19.00
2019-06-15T14:26:56.157Z,19.10
2019-06-15T14:29:25.857Z,19.20
2019-06-15T14:31:55.580Z,19.30
2019-06-15T14:34:25.531Z,19.40
2019-06-15T14:36:56.012Z,19.70
2019-06-15T14:39:25.870Z,20.20
2019-06-15T14:41:55.599Z,20.50
2019-06-15T14:44:25.303Z,20.50
2019-06-15T14:46:55.088Z,20.40
2019-06-15T14:49:24.907Z,20.20
2019-06-15T14:51:55.745Z,20.20
2019-06-15T14:54:26.516Z,20.40
2019-06-15T14:56:56.687Z,20.60
2019-06-15T14:59:26.603Z,20.70
2019-06-15T15:02:09.572Z,20.50
2019-06-15T15:04:27.826Z,20.50
2019-06-15T15:06:57.527Z,20.80
2019-06-15T15:09:27.802Z,21.20
2019-06-15T15:11:57.643Z,21.20
2019-06-15T15:14:27.391Z,21.30
2019-06-15T15:16:57.185Z,21.30
2019-06-15T15:19:27.391Z,21.50
2019-06-15T15:21:58.319Z,21.70
2019-06-15T15:24:28.043Z,21.80
2019-06-15T15:26:57.881Z,21.90
2019-06-15T15:29:28.033Z,21.80
2019-06-15T15:31:58.020Z,21.50
2019-06-15T15:34:27.983Z,21.20
2019-06-15T15:36:57.763Z,21.10
2019-06-15T15:39:27.526Z,21.30
2019-06-15T15:41:58.650Z,21.90
2019-06-15T15:44:28.436Z,24.00
2019-06-15T15:46:58.283Z,25.80
2019-06-15T15:49:27.991Z,27.20
2019-06-15T15:51:57.863Z,28.30
2019-06-15T15:54:28.550Z,29.20
2019-06-15T15:56:58.255Z,30.20
2019-06-15T15:59:28.043Z,30.50
2019-06-15T16:01:57.839Z,30.50
2019-06-15T16:04:27.639Z,31.00
2019-06-15T16:06:57.431Z,31.20
2019-06-15T16:09:27.513Z,30.90
2019-06-15T16:11:57.628Z,30.50
2019-06-15T16:14:28.367Z,30.10
2019-06-15T16:16:59.072Z,29.60
2019-06-15T16:19:28.885Z,28.80
2019-06-15T16:21:58.621Z,28.00
2019-06-15T16:24:28.468Z,27.20
2019-06-15T16:26:58.175Z,26.40
2019-06-15T16:29:28.483Z,26.00
2019-06-15T16:31:59.374Z,25.90
2019-06-15T16:34:29.103Z,25.80
2019-06-15T16:36:58.944Z,26.00
2019-06-15T16:39:28.740Z,26.50
2019-06-15T16:41:58.557Z,27.00
2019-06-15T16:44:28.328Z,28.10
2019-06-15T16:46:58.064Z,28.90
2019-06-15T16:49:27.838Z,29.20
2019-06-15T16:51:57.584Z,29.00
2019-06-15T16:54:27.277Z,29.10
2019-06-15T16:56:56.987Z,29.20
2019-06-15T16:59:26.712Z,28.00
2019-06-15T17:01:56.426Z,26.40
2019-06-15T17:04:26.842Z,25.30
2019-06-15T17:06:56.811Z,25.20
2019-06-15T17:09:27.615Z,25.50
2019-06-15T17:11:57.642Z,26.40
2019-06-15T17:14:27.467Z,27.60
2019-06-15T17:16:57.158Z,28.30
2019-06-15T17:19:27.087Z,28.50
2019-06-15T17:22:01.064Z,28.70
2019-06-15T17:24:28.362Z,28.60
2019-06-15T17:26:58.139Z,27.70
2019-06-15T17:29:27.831Z,26.70
2019-06-15T17:31:57.550Z,25.20
2019-06-15T17:34:27.251Z,24.10
2019-06-15T17:36:57.454Z,23.20
2019-06-15T17:39:29.677Z,22.30
2019-06-15T17:41:58.900Z,21.80
2019-06-15T17:44:28.622Z,21.60
2019-06-15T17:46:58.328Z,21.40
2019-06-15T17:49:28.121Z,21.30
2019-06-15T17:51:57.833Z,21.20
2019-06-15T17:54:27.563Z,21.00
2019-06-15T17:56:57.315Z,20.70
2019-06-15T17:59:27.043Z,20.50
2019-06-15T18:01:56.726Z,20.40
2019-06-15T18:04:26.440Z,20.40
2019-06-15T18:06:57.637Z,20.40
2019-06-15T18:09:27.339Z,20.30
2019-06-15T18:11:57.250Z,20.30
2019-06-15T18:14:27.099Z,20.30
2019-06-15T18:16:58.276Z,20.30
2019-06-15T18:19:28.203Z,20.20
2019-06-15T18:21:57.956Z,20.20
2019-06-15T18:24:27.678Z,20.20
2019-06-15T18:27:07.071Z,20.30
2019-06-15T18:29:36.975Z,20.40
2019-06-15T18:32:06.848Z,20.70
2019-06-15T18:34:36.870Z,20.90
2019-06-15T18:37:07.691Z,20.90
2019-06-15T18:39:37.515Z,20.80
2019-06-15T18:42:07.802Z,20.60
2019-06-15T18:44:38.601Z,20.40
2019-06-15T18:47:08.299Z,20.10
2019-06-15T18:49:38.003Z,19.90
2019-06-15T18:52:07.727Z,19.70
2019-06-15T18:54:37.427Z,19.60
2019-06-15T18:57:07.503Z,19.50
2019-06-15T18:59:37.365Z,19.30
2019-06-15T19:02:07.478Z,19.20
2019-06-15T19:04:37.175Z,19.10
2019-06-15T19:07:07.039Z,19.00
2019-06-15T19:09:36.758Z,18.80
2019-06-15T19:12:07.102Z,18.60
2019-06-15T19:14:36.975Z,18.60
2019-06-15T19:17:06.642Z,18.50
2019-06-15T19:19:37.689Z,18.30
2019-06-15T19:22:07.723Z,18.20
2019-06-15T19:24:37.463Z,18.00
2019-06-15T19:27:08.258Z,17.90
2019-06-15T19:29:38.073Z,17.80
2019-06-15T19:32:08.224Z,17.70
2019-06-15T19:34:47.069Z,17.60
2019-06-15T19:37:09.681Z,17.50
2019-06-15T19:39:39.443Z,17.30
2019-06-15T19:42:09.177Z,17.20
2019-06-15T19:44:39.857Z,17.10
2019-06-15T19:47:09.622Z,17.00
2019-06-15T19:49:39.334Z,16.90
2019-06-15T19:52:09.169Z,16.80
2019-06-15T19:54:39.003Z,16.70
2019-06-15T19:57:08.686Z,16.60
2019-06-15T19:59:38.395Z,16.60
2019-06-15T20:02:10.854Z,16.40
2019-06-15T20:04:56.357Z,16.30
2019-06-15T20:07:13.291Z,16.30
2019-06-15T20:09:43.051Z,16.20
2019-06-15T20:12:19.129Z,16.00
2019-06-15T20:14:46.264Z,16.00
2019-06-15T20:17:17.514Z,15.90
2019-06-15T20:19:46.957Z,15.80
2019-06-15T20:22:17.579Z,15.80
2019-06-15T20:24:47.631Z,15.70
2019-06-15T20:27:17.420Z,15.60
2019-06-15T20:29:47.654Z,15.50
2019-06-15T20:32:18.810Z,15.40
2019-06-15T20:34:48.591Z,15.40
2019-06-15T20:37:18.272Z,15.30
2019-06-15T20:39:48.115Z,15.30
2019-06-15T20:42:17.800Z,15.20
2019-06-15T20:44:48.579Z,15.00
2019-06-15T20:47:18.351Z,15.00
2019-06-15T20:49:48.115Z,14.90
2019-06-15T20:52:18.087Z,14.90
2019-06-15T20:54:47.862Z,14.80
2019-06-15T20:57:17.569Z,14.70
2019-06-15T20:59:47.622Z,14.70
2019-06-15T21:02:17.595Z,14.70
2019-06-15T21:04:47.377Z,14.60
2019-06-15T21:07:17.096Z,14.60
2019-06-15T21:09:46.909Z,14.60
2019-06-15T21:12:16.726Z,14.50
2019-06-15T21:14:47.083Z,14.50
2019-06-15T21:17:17.186Z,14.40
2019-06-15T21:19:46.914Z,14.40
2019-06-15T21:22:16.867Z,14.40
2019-06-15T21:24:46.636Z,14.40
2019-06-15T21:27:16.712Z,14.40
2019-06-15T21:29:46.543Z,14.50
2019-06-15T21:32:16.236Z,14.40
2019-06-15T21:34:46.465Z,14.40
2019-06-15T21:37:17.634Z,14.30
2019-06-15T21:39:47.475Z,14.20
2019-06-15T21:42:17.258Z,14.20
2019-06-15T21:44:47.092Z,14.10
2019-06-15T21:47:16.761Z,14.10
2019-06-15T21:49:46.838Z,14.00
2019-06-15T21:52:17.969Z,14.00
2019-06-15T21:54:47.734Z,14.00
2019-06-15T21:57:17.491Z,14.00
2019-06-15T21:59:47.429Z,13.90
2019-06-15T22:02:17.351Z,14.00
2019-06-15T22:04:47.143Z,14.00
2019-06-15T22:07:17.054Z,14.10
2019-06-15T22:09:47.010Z,14.00
2019-06-15T22:12:16.788Z,13.90
2019-06-15T22:14:46.711Z,13.90
2019-06-15T22:17:16.870Z,13.90
2019-06-15T22:19:46.761Z,13.80
2019-06-15T22:22:17.528Z,13.70
2019-06-15T22:24:47.214Z,13.70
2019-06-15T22:27:17.182Z,13.60
2019-06-15T22:29:47.393Z,13.60
2019-06-15T22:32:17.219Z,13.50
2019-06-15T22:34:47.208Z,13.50
2019-06-15T22:37:17.460Z,13.40
2019-06-15T22:39:47.451Z,13.40
2019-06-15T22:42:17.254Z,13.30
2019-06-15T22:44:46.965Z,13.40
2019-06-15T22:47:16.985Z,13.30
2019-06-15T22:49:47.763Z,13.30
2019-06-15T22:52:17.518Z,13.30
2019-06-15T22:54:47.295Z,13.20
2019-06-15T22:57:17.019Z,13.20
2019-06-15T22:59:46.700Z,13.20
2019-06-15T23:02:16.859Z,13.20
2019-06-15T23:04:47.240Z,13.20
2019-06-15T23:07:17.123Z,13.10
2019-06-15T23:09:46.927Z,13.10
2019-06-15T23:12:16.668Z,13.00
2019-06-15T23:14:46.698Z,13.00
2019-06-15T23:17:17.647Z,13.00
2019-06-15T23:19:47.342Z,13.00
2019-06-15T23:22:18.220Z,13.00
2019-06-15T23:24:47.931Z,13.00
2019-06-15T23:27:17.643Z,13.00
2019-06-15T23:29:47.343Z,12.90
2019-06-15T23:32:17.145Z,12.90
2019-06-15T23:34:47.807Z,12.90
2019-06-15T23:37:19.538Z,12.90
2019-06-15T23:40:07.468Z,12.80
2019-06-15T23:42:37.515Z,12.90
2019-06-15T23:45:07.388Z,13.00
2019-06-15T23:47:37.162Z,13.00
2019-06-15T23:50:07.710Z,13.10
2019-06-15T23:52:37.543Z,13.20
2019-06-15T23:55:07.705Z,13.20
2019-06-15T23:57:37.512Z,13.20
